Time;durP1;ratioP1;P1;durP2;ratioP2;P2;SDS_P1;SDS_P2;PMS_P1;PMS_P2;Temp;Humidity;BMP_temperature;BMP_pressure;BME280_temperature;BME280_humidity;BME280_pressure;Samples;Min_cycle;Max_cycle;Signal;HPM_P1;HPM_P2
2023/08/18 00:00:02;;;;;;;13.35;8.25;;;24.40;99.90;;;;;;5092462;28;20043;-73
2023/08/18 00:03:13;;;;;;;13.10;7.95;;;24.40;99.90;;;;;;5092230;28;20505;-72
2023/08/18 00:06:17;;;;;;;12.40;8.73;;;24.40;99.90;;;;;;5091357;28;20035;-73
2023/08/18 00:09:22;;;;;;;12.52;8.02;;;24.40;99.90;;;;;;5088360;28;20051;-73
2023/08/18 00:12:26;;;;;;;15.80;8.43;;;24.30;99.90;;;;;;5071851;28;20055;-73
2023/08/18 00:15:29;;;;;;;13.55;8.00;;;24.30;99.90;;;;;;5059884;28;20502;-73
2023/08/18 00:18:52;;;;;;;14.30;7.70;;;24.20;99.90;;;;;;5085954;28;20047;-73
2023/08/18 00:22:15;;;;;;;17.98;8.95;;;24.20;99.90;;;;;;5091454;28;20051;-73
2023/08/18 00:25:19;;;;;;;15.35;9.95;;;24.00;99.90;;;;;;5092056;28;20059;-73
2023/08/18 00:28:23;;;;;;;22.08;10.13;;;23.70;99.90;;;;;;5091871;28;20505;-73
2023/08/18 00:31:27;;;;;;;13.52;9.38;;;23.50;99.90;;;;;;5079575;28;20058;-73
2023/08/18 00:34:31;;;;;;;15.38;10.00;;;23.40;99.90;;;;;;5092397;28;20039;-73
2023/08/18 00:37:35;;;;;;;20.58;10.20;;;23.40;99.90;;;;;;5092187;28;20051;-73
2023/08/18 00:40:39;;;;;;;18.58;9.15;;;23.30;99.90;;;;;;5079331;28;20403;-73
2023/08/18 00:44:02;;;;;;;14.32;9.88;;;23.30;99.90;;;;;;5079364;28;20070;-73
2023/08/18 00:47:07;;;;;;;18.98;9.52;;;23.20;99.90;;;;;;5067578;28;20038;-73
2023/08/18 00:50:30;;;;;;;13.98;9.90;;;23.20;99.90;;;;;;5059351;28;20047;-73
2023/08/18 00:53:55;;;;;;;14.70;9.57;;;23.10;99.90;;;;;;5058993;28;20051;-73
2023/08/18 00:56:59;;;;;;;12.48;9.68;;;23.00;99.90;;;;;;5059140;28;20206;-73
2023/08/18 01:00:04;;;;;;;14.77;9.85;;;23.10;99.90;;;;;;5058786;28;20043;-74
2023/08/18 01:03:10;;;;;;;19.30;9.82;;;23.10;99.90;;;;;;5071649;28;20047;-74
2023/08/18 01:06:33;;;;;;;15.38;10.30;;;23.10;99.90;;;;;;5070447;28;20502;-73
2023/08/18 01:09:38;;;;;;;17.42;9.93;;;23.10;99.90;;;;;;5071024;28;20046;-73
2023/08/18 01:13:10;;;;;;;14.45;9.95;;;23.20;99.90;;;;;;5058839;28;20048;-73
2023/08/18 01:16:23;;;;;;;16.02;10.38;;;23.30;99.90;;;;;;5058534;28;20509;-74
2023/08/18 01:19:47;;;;;;;15.15;9.63;;;23.30;99.90;;;;;;5078277;28;20039;-73
2023/08/18 01:22:55;;;;;;;16.45;10.20;;;23.40;99.90;;;;;;5074821;28;20031;-72
2023/08/18 01:37:10;;;;;;;16.38;10.65;;;23.40;99.90;;;;;;5060903;28;20164;-73
2023/08/18 01:40:17;;;;;;;15.88;10.38;;;23.10;99.90;;;;;;5070726;28;20047;-73
2023/08/18 01:43:22;;;;;;;16.70;11.48;;;22.90;99.90;;;;;;5058146;28;20387;-73
2023/08/18 01:46:46;;;;;;;17.48;11.23;;;22.70;99.90;;;;;;5061315;28;20112;-73
2023/08/18 01:49:50;;;;;;;13.40;10.63;;;22.60;99.90;;;;;;5071019;28;20047;-73
2023/08/18 01:56:16;;;;;;;13.20;11.15;;;22.50;99.90;;;;;;5070616;28;20407;-74
2023/08/18 01:59:39;;;;;;;15.55;11.35;;;22.40;99.90;;;;;;5069622;28;20036;-73
2023/08/18 02:02:42;;;;;;;18.00;11.40;;;22.40;99.90;;;;;;5072852;28;20059;-73
2023/08/18 02:05:46;;;;;;;16.42;10.73;;;22.40;99.90;;;;;;5067116;28;20387;-73
2023/08/18 02:08:50;;;;;;;13.35;9.68;;;22.40;99.90;;;;;;5090856;28;20493;-73
2023/08/18 02:11:54;;;;;;;14.77;11.27;;;22.30;99.90;;;;;;5078056;28;20043;-73
2023/08/18 02:14:58;;;;;;;15.85;11.27;;;22.30;99.90;;;;;;5078044;28;20051;-73
2023/08/18 02:18:06;;;;;;;16.38;10.70;;;22.30;99.90;;;;;;5092762;28;20051;-73
2023/08/18 02:21:31;;;;;;;17.25;10.95;;;22.30;99.90;;;;;;5094499;28;20047;-73
2023/08/18 02:24:35;;;;;;;15.25;10.68;;;22.20;99.90;;;;;;5094791;28;20051;-72
2023/08/18 02:28:18;;;;;;;20.13;10.43;;;22.20;99.90;;;;;;5094498;28;20043;-72
2023/08/18 02:31:22;;;;;;;17.15;11.10;;;22.20;99.90;;;;;;5081719;28;20047;-73
2023/08/18 02:34:26;;;;;;;14.85;11.00;;;22.20;99.90;;;;;;5081785;28;20071;-73
2023/08/18 02:37:49;;;;;;;16.75;11.40;;;22.10;99.90;;;;;;5084458;28;20106;-72
2023/08/18 02:40:54;;;;;;;16.17;10.93;;;22.20;99.90;;;;;;5081575;28;20513;-72
2023/08/18 02:43:58;;;;;;;16.45;10.75;;;22.20;99.90;;;;;;5081457;28;20036;-73
2023/08/18 02:47:03;;;;;;;15.65;11.55;;;22.20;99.90;;;;;;5094194;28;20047;-72
2023/08/18 02:50:07;;;;;;;16.67;11.05;;;22.10;99.90;;;;;;5081220;28;20043;-73
2023/08/18 02:53:30;;;;;;;21.00;10.48;;;22.00;99.90;;;;;;5093512;28;20055;-72
2023/08/18 02:56:34;;;;;;;18.30;10.43;;;22.10;99.90;;;;;;5081408;28;20047;-73
2023/08/18 02:59:57;;;;;;;20.33;10.73;;;22.10;99.90;;;;;;5093483;28;20055;-72
2023/08/18 03:03:19;;;;;;;14.82;11.70;;;22.10;99.90;;;;;;5069689;28;20043;-73
2023/08/18 03:06:42;;;;;;;15.15;10.98;;;22.10;99.90;;;;;;5069789;28;20055;-73
2023/08/18 03:09:46;;;;;;;20.65;12.27;;;22.10;99.90;;;;;;5093442;28;20039;-72
2023/08/18 03:12:51;;;;;;;20.10;11.30;;;22.10;99.90;;;;;;5081334;28;20497;-73
2023/08/18 03:16:14;;;;;;;15.60;11.45;;;22.10;99.90;;;;;;5081371;28;20059;-73
2023/08/18 03:19:18;;;;;;;23.77;11.63;;;22.10;99.90;;;;;;5093422;28;20043;-73
2023/08/18 03:22:22;;;;;;;16.08;11.00;;;22.00;99.90;;;;;;5093262;28;20043;-73
2023/08/18 03:25:26;;;;;;;18.85;11.85;;;22.10;99.90;;;;;;5093312;28;20101;-73
2023/08/18 03:28:32;;;;;;;22.48;12.90;;;22.10;99.90;;;;;;5086380;28;20051;-73
2023/08/18 03:31:38;;;;;;;14.73;11.35;;;22.00;99.90;;;;;;5038012;28;20518;-73
2023/08/18 03:34:42;;;;;;;15.50;11.32;;;22.10;99.90;;;;;;5060913;28;20079;-73
2023/08/18 03:37:46;;;;;;;15.80;11.77;;;22.10;99.90;;;;;;5068194;28;20051;-73
2023/08/18 03:41:03;;;;;;;20.58;11.82;;;22.10;99.90;;;;;;5060283;28;20047;-72
2023/08/18 03:44:25;;;;;;;18.40;11.98;;;22.00;99.90;;;;;;5066512;28;20086;-73
2023/08/18 03:47:29;;;;;;;25.63;13.52;;;22.00;99.90;;;;;;5074421;28;20039;-73
2023/08/18 03:50:34;;;;;;;18.35;11.43;;;22.00;99.90;;;;;;5057632;28;20505;-73
2023/08/18 03:53:38;;;;;;;15.90;11.43;;;22.00;99.90;;;;;;5080468;28;20043;-72
2023/08/18 04:00:09;;;;;;;17.48;12.25;;;21.60;99.90;;;;;;5079908;28;20394;-72
2023/08/18 04:03:18;;;;;;;19.70;13.27;;;21.50;99.90;;;;;;5080874;28;20050;-72
2023/08/18 04:06:22;;;;;;;15.00;11.63;;;21.40;99.90;;;;;;5092671;28;20510;-72
2023/08/18 04:09:26;;;;;;;16.83;11.73;;;21.40;99.90;;;;;;5092467;28;20054;-72
2023/08/18 04:12:49;;;;;;;18.08;12.35;;;21.40;99.90;;;;;;5085173;28;20051;-72
2023/08/18 04:16:34;;;;;;;18.30;13.33;;;21.40;99.90;;;;;;5092331;28;20042;-73
2023/08/18 04:19:38;;;;;;;14.80;11.98;;;21.30;99.90;;;;;;5092157;28;20051;-73
2023/08/18 04:22:43;;;;;;;15.98;12.90;;;21.30;99.90;;;;;;5079328;28;20058;-73
2023/08/18 04:25:47;;;;;;;15.63;12.63;;;21.40;99.90;;;;;;5079910;28;20119;-73
2023/08/18 04:28:52;;;;;;;16.80;12.50;;;21.50;99.90;;;;;;5068416;28;20039;-73
2023/08/18 04:31:58;;;;;;;21.52;12.30;;;21.60;99.90;;;;;;5067577;28;20043;-73
2023/08/18 04:35:23;;;;;;;14.25;11.35;;;21.70;99.90;;;;;;5082607;28;20064;-72
2023/08/18 04:38:46;;;;;;;18.25;12.13;;;21.80;99.90;;;;;;5067895;28;20297;-73
2023/08/18 04:42:16;;;;;;;15.55;12.38;;;21.60;99.90;;;;;;5077991;28;20051;-72
2023/08/18 04:45:20;;;;;;;18.65;12.45;;;21.50;99.90;;;;;;5067777;28;20039;-72
2023/08/18 04:48:25;;;;;;;15.70;12.45;;;21.40;99.90;;;;;;5078544;28;20043;-73
2023/08/18 04:51:47;;;;;;;16.48;11.68;;;21.30;99.90;;;;;;5078826;28;20043;-73
2023/08/18 04:54:51;;;;;;;17.38;12.38;;;21.30;99.90;;;;;;5066610;28;20055;-73
2023/08/18 04:58:15;;;;;;;18.42;12.80;;;21.40;99.90;;;;;;5091693;28;20605;-73
2023/08/18 05:01:37;;;;;;;20.40;12.65;;;21.60;99.90;;;;;;5066669;28;20043;-72
2023/08/18 05:04:42;;;;;;;16.65;11.63;;;21.70;99.90;;;;;;5052710;28;20502;-73
2023/08/18 05:08:05;;;;;;;21.65;11.88;;;21.90;99.90;;;;;;5061750;28;20065;-72
2023/08/18 05:11:11;;;;;;;16.13;11.73;;;22.00;99.90;;;;;;5089690;28;20050;-72
2023/08/18 05:14:52;;;;;;;16.58;11.20;;;22.00;99.90;;;;;;5091403;28;20419;-72
2023/08/18 05:17:57;;;;;;;16.92;11.50;;;22.10;99.90;;;;;;5091518;28;20489;-73
2023/08/18 05:24:24;;;;;;;13.55;12.15;;;22.20;99.90;;;;;;5078726;28;20067;-73
2023/08/18 05:27:29;;;;;;;16.65;12.02;;;22.60;99.90;;;;;;5091258;28;20042;-73
2023/08/18 05:33:55;;;;;;;17.80;11.70;;;24.90;99.90;;;;;;5079719;28;20043;-73
2023/08/18 05:37:18;;;;;;;20.20;12.15;;;23.80;99.90;;;;;;5089212;28;20050;-73
2023/08/18 05:40:21;;;;;;;17.88;11.25;;;24.10;99.90;;;;;;5077484;28;20297;-73
2023/08/18 05:47:06;;;;;;;17.85;9.73;;;27.40;99.90;;;;;;5090051;28;20517;-73
2023/08/18 05:50:11;;;;;;;15.07;8.88;;;29.20;99.90;;;;;;5089038;28;20042;-73
2023/08/18 05:53:15;;;;;;;16.45;10.00;;;30.40;99.90;;;;;;5089158;28;20047;-73
2023/08/18 05:56:38;;;;;;;20.23;9.32;;;29.80;99.90;;;;;;5090680;28;20051;-73
2023/08/18 05:59:42;;;;;;;14.15;9.50;;;30.50;99.90;;;;;;5067198;28;20039;-73
2023/08/18 06:02:46;;;;;;;12.55;9.57;;;29.00;99.90;;;;;;5089649;28;20527;-73
2023/08/18 06:05:50;;;;;;;14.48;9.32;;;29.00;99.90;;;;;;5086217;28;20398;-74
2023/08/18 06:08:54;;;;;;;13.52;9.30;;;29.30;99.90;;;;;;5089877;28;20047;-73
2023/08/18 06:12:37;;;;;;;13.55;9.75;;;28.70;99.90;;;;;;5080405;28;20410;-73
2023/08/18 06:15:42;;;;;;;13.73;9.32;;;28.80;99.90;;;;;;5089432;28;20035;-74
2023/08/18 06:18:47;;;;;;;10.65;7.90;;;29.50;99.90;;;;;;5084875;28;20486;-73
2023/08/18 06:21:52;;;;;;;10.13;7.93;;;30.70;99.90;;;;;;5084572;28;20058;-73
2023/08/18 06:24:56;;;;;;;16.38;8.40;;;31.80;99.90;;;;;;5089494;28;20497;-74
2023/08/18 06:28:00;;;;;;;11.38;8.55;;;31.90;99.90;;;;;;5088284;28;20039;-74
2023/08/18 06:31:05;;;;;;;14.10;7.93;;;31.20;99.90;;;;;;5066739;28;20059;-74
2023/08/18 06:34:09;;;;;;;15.30;8.32;;;31.10;99.90;;;;;;5090970;28;20039;-74
2023/08/18 06:37:13;;;;;;;12.98;7.57;;;32.10;99.90;;;;;;5091084;28;20063;-74
2023/08/18 06:40:17;;;;;;;11.75;7.30;;;32.90;99.90;;;;;;5090607;28;20051;-77
2023/08/18 06:43:40;;;;;;;15.48;8.10;;;33.70;98.40;;;;;;5084504;28;20031;-76
2023/08/18 06:46:44;;;;;;;9.13;6.40;;;33.60;98.10;;;;;;5085430;28;20386;-76
2023/08/18 06:50:09;;;;;;;9.88;6.93;;;34.80;96.70;;;;;;5088178;28;20031;-74
2023/08/18 06:53:32;;;;;;;9.02;5.85;;;35.00;95.80;;;;;;5053430;28;20047;-75
2023/08/18 06:56:36;;;;;;;7.70;5.93;;;34.90;95.60;;;;;;5084071;28;20039;-75
2023/08/18 06:59:40;;;;;;;12.13;6.18;;;35.20;94.80;;;;;;5084697;28;20047;-74
2023/08/18 07:02:44;;;;;;;6.97;5.35;;;35.20;94.20;;;;;;5084322;28;20039;-76
2023/08/18 07:05:48;;;;;;;9.77;5.78;;;35.90;94.00;;;;;;5088728;28;20068;-75
2023/08/18 07:08:52;;;;;;;11.48;6.00;;;36.60;93.20;;;;;;5089958;28;20035;-74
2023/08/18 07:12:15;;;;;;;10.00;5.95;;;37.20;92.40;;;;;;5092983;28;20043;-74
2023/08/18 07:15:57;;;;;;;9.82;5.97;;;37.30;91.60;;;;;;5087102;28;20043;-75
2023/08/18 07:19:01;;;;;;;16.90;6.32;;;37.50;91.30;;;;;;5090857;28;20042;-73
2023/08/18 07:25:27;;;;;;;9.10;5.60;;;35.20;92.70;;;;;;5081992;28;20491;-74
2023/08/18 07:28:31;;;;;;;7.50;5.93;;;36.30;92.50;;;;;;5086592;28;20374;-74
2023/08/18 07:31:55;;;;;;;7.93;6.38;;;34.50;93.40;;;;;;5089275;28;20105;-74
2023/08/18 07:34:58;;;;;;;7.45;5.72;;;33.80;93.50;;;;;;5094032;28;20038;-75
2023/08/18 07:38:03;;;;;;;9.40;6.07;;;33.40;94.60;;;;;;5093297;28;20486;-75
2023/08/18 07:41:07;;;;;;;8.85;5.65;;;35.30;93.40;;;;;;5090618;28;20062;-75
2023/08/18 07:44:11;;;;;;;10.05;5.13;;;36.70;92.40;;;;;;5079229;28;20043;-74
2023/08/18 07:50:57;;;;;;;8.02;5.65;;;36.10;91.10;;;;;;5101863;28;20399;-74
2023/08/18 07:54:01;;;;;;;8.93;5.82;;;35.40;92.60;;;;;;5092935;28;20490;-74
2023/08/18 07:57:05;;;;;;;10.02;5.70;;;35.50;92.20;;;;;;5094462;28;20043;-75
2023/08/18 08:00:17;;;;;;;9.05;5.78;;;35.00;92.10;;;;;;5096543;28;20386;-75
2023/08/18 08:03:42;;;;;;;8.57;5.38;;;35.90;91.60;;;;;;5084885;28;20044;-74
2023/08/18 08:07:05;;;;;;;8.52;5.50;;;37.20;91.40;;;;;;5087163;28;20043;-75
2023/08/18 08:10:09;;;;;;;9.27;5.97;;;36.20;91.10;;;;;;5077546;28;20050;-73
2023/08/18 08:13:13;;;;;;;9.13;4.93;;;36.80;90.90;;;;;;5086110;28;20467;-75
2023/08/18 08:16:18;;;;;;;12.95;5.57;;;37.90;90.50;;;;;;5093476;28;20039;-75
2023/08/18 08:19:41;;;;;;;9.68;5.65;;;37.40;89.90;;;;;;5094790;28;20505;-74
2023/08/18 08:22:47;;;;;;;8.80;4.90;;;38.10;90.20;;;;;;5090036;28;20391;-73
2023/08/18 08:25:51;;;;;;;10.23;4.90;;;39.50;88.60;;;;;;5094186;28;20378;-74
2023/08/18 08:29:14;;;;;;;7.38;4.88;;;39.50;88.10;;;;;;5090278;28;20044;-75
2023/08/18 08:32:37;;;;;;;9.75;4.93;;;39.70;87.20;;;;;;5090886;28;20116;-74
2023/08/18 08:35:40;;;;;;;8.02;5.10;;;40.20;86.10;;;;;;5090616;28;20031;-74
2023/08/18 08:38:44;;;;;;;6.57;4.68;;;39.80;86.40;;;;;;5096251;28;20580;-73
2023/08/18 08:43:03;;;;;;;11.98;4.97;;;40.90;84.00;;;;;;5084404;28;20494;-74
2023/08/18 08:46:08;;;;;;;7.53;4.70;;;41.40;82.00;;;;;;5093596;28;20035;-74
2023/08/18 08:52:39;;;;;;;11.68;4.78;;;42.30;80.10;;;;;;5079838;28;20513;-74
2023/08/18 08:55:45;;;;;;;7.60;5.00;;;40.90;79.90;;;;;;5086321;28;20035;-74
2023/08/18 08:58:49;;;;;;;7.43;4.18;;;41.80;80.40;;;;;;5091584;28;20054;-74
2023/08/18 09:01:53;;;;;;;7.25;4.15;;;43.80;78.60;;;;;;5093539;28;20422;-75
2023/08/18 09:05:35;;;;;;;10.00;4.63;;;44.90;76.40;;;;;;5084894;28;20039;-72
2023/08/18 09:08:39;;;;;;;5.25;3.75;;;42.40;75.60;;;;;;5091490;28;20041;-75
2023/08/18 09:12:08;;;;;;;11.25;4.88;;;42.20;78.20;;;;;;5086110;28;20059;-75
2023/08/18 09:15:12;;;;;;;8.07;4.07;;;43.70;75.90;;;;;;5106612;28;20055;-75
2023/08/18 09:18:17;;;;;;;6.70;3.92;;;43.60;75.20;;;;;;5091303;28;20051;-75
2023/08/18 09:21:23;;;;;;;9.20;4.15;;;44.90;73.60;;;;;;5070601;28;20431;-75
2023/08/18 09:24:46;;;;;;;9.65;3.92;;;46.00;72.40;;;;;;5083733;28;20377;-74
2023/08/18 09:27:50;;;;;;;8.25;4.20;;;43.80;71.60;;;;;;5086676;28;20051;-74
2023/08/18 09:30:54;;;;;;;5.22;3.60;;;43.80;72.80;;;;;;5092477;28;20047;-76
2023/08/18 09:34:02;;;;;;;18.38;5.20;;;46.00;71.10;;;;;;5075878;28;20047;-72
2023/08/18 09:37:06;;;;;;;8.02;4.20;;;45.70;70.30;;;;;;5088690;28;20055;-70
2023/08/18 09:40:10;;;;;;;5.30;3.90;;;44.60;69.10;;;;;;5093353;28;20111;-69
2023/08/18 09:43:33;;;;;;;4.65;3.70;;;46.50;68.90;;;;;;5089095;28;20064;-69
2023/08/18 09:50:05;;;;;;;5.40;3.10;;;46.40;67.70;;;;;;5087640;28;20031;-70
2023/08/18 09:53:13;;;;;;;6.75;3.95;;;48.10;66.70;;;;;;5087384;28;20051;-70
2023/08/18 09:56:26;;;;;;;4.03;3.17;;;49.20;65.40;;;;;;5088352;28;20494;-70
2023/08/18 10:03:30;;;;;;;8.80;4.05;;;47.90;62.90;;;;;;5081387;28;20125;-70
2023/08/18 10:06:36;;;;;;;4.00;3.60;;;49.70;63.40;;;;;;5083350;28;20493;-69
2023/08/18 10:09:59;;;;;;;6.95;3.50;;;49.80;62.70;;;;;;5087088;28;20033;-69
2023/08/18 10:13:07;;;;;;;7.05;3.25;;;50.20;61.30;;;;;;5087919;28;20644;-70
2023/08/18 10:16:31;;;;;;;5.40;2.75;;;51.40;59.40;;;;;;5085821;28;20039;-71
2023/08/18 10:23:18;;;;;;;4.78;2.50;;;53.10;58.20;;;;;;5089159;28;20055;-70
2023/08/18 10:26:24;;;;;;;5.30;2.80;;;53.80;56.30;;;;;;5086189;28;20221;-69
2023/08/18 10:29:28;;;;;;;5.10;2.97;;;54.00;55.60;;;;;;5082441;28;20039;-71
2023/08/18 10:32:54;;;;;;;9.60;3.33;;;53.80;55.30;;;;;;5081956;28;20039;-70
2023/08/18 10:36:01;;;;;;;4.97;2.50;;;51.60;56.10;;;;;;5085226;28;20356;-70
2023/08/18 10:39:44;;;;;;;4.47;3.07;;;50.90;57.20;;;;;;5089778;28;20382;-69
2023/08/18 10:42:51;;;;;;;6.63;3.72;;;48.40;58.60;;;;;;5092595;28;20047;-70
2023/08/18 10:46:32;;;;;;;6.85;3.40;;;45.30;59.90;;;;;;5097628;28;20039;-69
2023/08/18 10:49:37;;;;;;;5.57;3.35;;;48.60;59.10;;;;;;5096470;28;20046;-70
2023/08/18 10:52:41;;;;;;;4.72;3.40;;;51.40;57.80;;;;;;5093755;28;20502;-68
2023/08/18 10:55:45;;;;;;;8.85;3.42;;;50.80;57.00;;;;;;5093462;28;20039;-70
2023/08/18 10:59:27;;;;;;;8.38;3.72;;;48.70;56.80;;;;;;5087040;28;20043;-70
2023/08/18 11:02:31;;;;;;;6.85;3.42;;;47.40;59.90;;;;;;5085040;28;20482;-68
2023/08/18 11:05:35;;;;;;;8.68;3.00;;;49.30;58.60;;;;;;5086947;28;20115;-70
2023/08/18 11:12:03;;;;;;;9.60;3.50;;;51.30;55.60;;;;;;5090285;28;20039;-70
2023/08/18 11:15:08;;;;;;;7.40;3.25;;;49.90;56.90;;;;;;5093137;28;20047;-70
2023/08/18 11:18:12;;;;;;;3.88;2.60;;;49.50;57.20;;;;;;5089810;28;20906;-70
2023/08/18 11:21:35;;;;;;;10.85;3.63;;;49.00;55.60;;;;;;5082728;28;20039;-69
2023/08/18 11:24:40;;;;;;;8.45;3.50;;;45.70;57.40;;;;;;5085480;28;20031;-69
2023/08/18 11:27:45;;;;;;;11.85;3.60;;;47.70;57.10;;;;;;5088506;28;20386;-70
2023/08/18 11:37:53;;;;;;;5.03;2.60;;;50.40;55.30;;;;;;5090742;28;20074;-70
2023/08/18 11:41:34;;;;;;;8.98;3.20;;;51.50;53.90;;;;;;5090035;28;20521;-70
2023/08/18 11:45:23;;;;;;;7.57;3.03;;;52.80;52.90;;;;;;5087007;28;20059;-70
2023/08/18 11:48:29;;;;;;;6.18;3.13;;;46.50;54.90;;;;;;5073441;28;20051;-70
2023/08/18 11:52:06;;;;;;;6.55;3.10;;;47.40;56.60;;;;;;5089100;28;20387;-70
2023/08/18 11:55:11;;;;;;;6.75;2.58;;;49.40;53.80;;;;;;5090940;28;20395;-70
2023/08/18 11:58:15;;;;;;;4.50;2.83;;;51.10;52.40;;;;;;5092836;28;20055;-70
2023/08/18 12:01:21;;;;;;;4.43;2.47;;;51.80;51.70;;;;;;5092289;28;20506;-70
2023/08/18 12:04:27;;;;;;;6.05;2.78;;;51.90;51.30;;;;;;5087402;28;20201;-71
2023/08/18 12:07:31;;;;;;;7.22;2.78;;;52.60;50.70;;;;;;5081497;28;20379;-70
2023/08/18 12:10:34;;;;;;;7.07;2.47;;;49.10;51.80;;;;;;5087196;28;20031;-70
2023/08/18 12:13:38;;;;;;;9.77;3.13;;;47.30;52.10;;;;;;5091062;28;20386;-68
2023/08/18 12:17:01;;;;;;;7.15;3.65;;;46.40;51.90;;;;;;5091716;28;20035;-68
2023/08/18 12:20:24;;;;;;;7.93;3.10;;;44.70;53.50;;;;;;5092489;28;20505;-69
2023/08/18 12:23:46;;;;;;;8.35;2.97;;;45.80;53.30;;;;;;5090358;28;20399;-69
2023/08/18 12:26:50;;;;;;;7.75;2.95;;;44.90;52.60;;;;;;5088748;28;20033;-69
2023/08/18 12:30:13;;;;;;;11.93;3.47;;;43.80;53.20;;;;;;5071762;28;20043;-70
2023/08/18 12:33:17;;;;;;;5.93;2.80;;;45.10;53.30;;;;;;5071513;28;20036;-68
2023/08/18 12:36:21;;;;;;;10.70;2.95;;;47.00;53.60;;;;;;5087129;28;20111;-69
2023/08/18 12:39:26;;;;;;;8.10;2.97;;;47.70;52.40;;;;;;5084692;28;20055;-69
2023/08/18 12:42:30;;;;;;;8.60;3.53;;;43.60;53.30;;;;;;5070751;28;20047;-68
2023/08/18 12:45:35;;;;;;;6.80;3.15;;;42.10;54.90;;;;;;5071451;28;20323;-68
2023/08/18 12:48:40;;;;;;;6.88;3.50;;;42.90;55.10;;;;;;5071419;28;20059;-69
2023/08/18 12:51:44;;;;;;;8.48;3.22;;;44.40;54.60;;;;;;5086665;28;20052;-67
2023/08/18 12:54:49;;;;;;;11.20;3.22;;;45.20;54.00;;;;;;5079496;28;20043;-70
2023/08/18 12:57:53;;;;;;;6.75;3.47;;;44.30;55.30;;;;;;5087540;28;20059;-69
2023/08/18 13:00:57;;;;;;;11.13;3.38;;;45.60;54.90;;;;;;5090244;28;20601;-70
2023/08/18 13:04:01;;;;;;;7.55;3.33;;;46.80;54.30;;;;;;5087492;28;20043;-69
2023/08/18 13:07:06;;;;;;;22.42;4.47;;;47.10;53.30;;;;;;5089140;28;20035;-68
2023/08/18 13:10:10;;;;;;;9.73;3.72;;;44.20;55.10;;;;;;5086668;28;20047;-69
2023/08/18 13:13:14;;;;;;;12.32;3.90;;;44.70;55.00;;;;;;5088134;28;20039;-68
2023/08/18 13:16:18;;;;;;;11.52;3.75;;;44.40;54.90;;;;;;5089702;28;20070;-68
2023/08/18 13:19:22;;;;;;;11.15;3.65;;;43.20;56.20;;;;;;5077845;28;20038;-70
2023/08/18 13:22:27;;;;;;;10.55;3.70;;;43.10;55.10;;;;;;5081475;28;20039;-70
2023/08/18 13:25:34;;;;;;;10.65;3.40;;;44.30;54.60;;;;;;5087011;28;20039;-69
2023/08/18 13:28:38;;;;;;;8.98;3.83;;;44.70;56.00;;;;;;5083937;28;20047;-69
2023/08/18 13:31:43;;;;;;;5.63;3.75;;;44.30;56.30;;;;;;5085103;28;20047;-68
2023/08/18 13:34:47;;;;;;;9.77;4.40;;;42.10;57.20;;;;;;5086788;28;20051;-68
2023/08/18 13:37:51;;;;;;;9.63;5.07;;;42.20;58.30;;;;;;5080166;28;20489;-70
2023/08/18 13:40:56;;;;;;;8.52;4.20;;;41.00;58.70;;;;;;5087160;28;20031;-68
2023/08/18 13:44:02;;;;;;;9.63;4.05;;;39.90;59.30;;;;;;5087543;28;20035;-68
2023/08/18 13:47:06;;;;;;;12.80;4.18;;;39.50;59.90;;;;;;5086730;28;20044;-69
2023/08/18 13:50:10;;;;;;;12.63;3.90;;;40.20;60.00;;;;;;5073255;28;20040;-69
2023/08/18 13:53:14;;;;;;;7.63;3.63;;;40.50;58.30;;;;;;5087993;28;20043;-69
2023/08/18 13:56:19;;;;;;;10.52;3.90;;;39.60;59.70;;;;;;5084268;28;20067;-70
2023/08/18 13:59:24;;;;;;;9.52;4.05;;;40.60;59.40;;;;;;5081370;28;20039;-69
2023/08/18 14:02:28;;;;;;;8.35;4.10;;;41.00;58.10;;;;;;5077886;28;20040;-70
2023/08/18 14:05:33;;;;;;;10.57;3.85;;;41.00;58.70;;;;;;5081727;28;20036;-70
2023/08/18 14:08:37;;;;;;;9.35;3.88;;;40.80;58.80;;;;;;5084739;28;20039;-69
2023/08/18 14:11:41;;;;;;;13.95;4.53;;;40.40;59.60;;;;;;5089413;28;20051;-69
2023/08/18 14:14:45;;;;;;;8.52;4.43;;;39.60;59.00;;;;;;5087338;28;20043;-70
2023/08/18 14:17:49;;;;;;;12.30;4.18;;;39.50;60.00;;;;;;5084548;28;20042;-70
2023/08/18 14:20:53;;;;;;;8.30;3.83;;;39.50;60.00;;;;;;5089616;28;20047;-69
2023/08/18 14:23:57;;;;;;;16.08;4.03;;;39.50;59.90;;;;;;5084939;28;20489;-69
2023/08/18 14:27:02;;;;;;;9.13;3.92;;;39.50;60.20;;;;;;5094805;28;20035;-69
2023/08/18 14:30:07;;;;;;;13.82;4.45;;;39.40;60.80;;;;;;5094719;28;20243;-70
2023/08/18 14:33:11;;;;;;;8.57;4.50;;;39.30;61.50;;;;;;5094395;28;20043;-69
2023/08/18 14:36:15;;;;;;;10.98;4.57;;;39.20;61.30;;;;;;5094027;28;20118;-68
2023/08/18 14:39:19;;;;;;;10.63;4.70;;;38.80;61.60;;;;;;5094109;28;20050;-69
2023/08/18 14:42:23;;;;;;;9.07;5.00;;;38.20;62.30;;;;;;5085857;28;20051;-67
2023/08/18 14:45:27;;;;;;;8.13;5.47;;;37.40;63.90;;;;;;5086184;28;20039;-68
2023/08/18 14:48:31;;;;;;;12.07;5.65;;;37.10;64.80;;;;;;5073898;28;20045;-68
2023/08/18 14:51:35;;;;;;;8.50;5.40;;;37.30;64.10;;;;;;5073842;28;20039;-68
2023/08/18 14:54:39;;;;;;;9.82;4.43;;;37.80;64.40;;;;;;5073619;28;20039;-69
2023/08/18 14:57:43;;;;;;;15.70;5.15;;;38.30;64.50;;;;;;5073515;28;20067;-68
2023/08/18 15:00:47;;;;;;;10.45;5.30;;;38.40;64.20;;;;;;5079931;28;20062;-68
2023/08/18 15:03:51;;;;;;;8.77;5.10;;;38.50;64.50;;;;;;5089755;28;20043;-68
2023/08/18 15:06:56;;;;;;;9.95;5.00;;;38.50;63.50;;;;;;5094058;28;20047;-68
2023/08/18 15:10:00;;;;;;;7.68;4.55;;;38.50;63.40;;;;;;5093944;28;20047;-69
2023/08/18 15:13:04;;;;;;;7.45;4.40;;;38.30;63.10;;;;;;5093600;28;20387;-70
2023/08/18 15:16:07;;;;;;;9.00;4.43;;;38.70;63.10;;;;;;5093668;28;20055;-69
2023/08/18 15:19:14;;;;;;;9.25;3.90;;;39.10;63.00;;;;;;5093406;28;20051;-68
2023/08/18 15:22:18;;;;;;;8.88;3.85;;;39.30;61.40;;;;;;5092810;28;20051;-70
2023/08/18 15:25:23;;;;;;;8.50;4.43;;;39.60;61.40;;;;;;5092626;28;20047;-70
2023/08/18 15:28:27;;;;;;;9.77;3.95;;;40.00;61.00;;;;;;5093428;28;20039;-69
2023/08/18 15:31:31;;;;;;;8.07;4.38;;;40.00;60.70;;;;;;5093370;28;20047;-68
2023/08/18 15:34:36;;;;;;;9.93;4.20;;;40.10;59.80;;;;;;5093652;28;20498;-70
2023/08/18 15:37:41;;;;;;;11.73;4.70;;;40.20;60.60;;;;;;5087686;28;20039;-71
2023/08/18 15:40:45;;;;;;;10.30;4.13;;;40.20;60.30;;;;;;5072780;28;20071;-69
2023/08/18 15:43:50;;;;;;;8.65;4.10;;;39.90;59.90;;;;;;5072862;28;20055;-69
2023/08/18 15:46:53;;;;;;;7.70;4.35;;;39.20;62.20;;;;;;5073071;28;20055;-68
2023/08/18 15:49:57;;;;;;;8.45;4.50;;;37.80;64.20;;;;;;5072792;28;20055;-69
2023/08/18 15:53:03;;;;;;;16.98;5.15;;;36.60;66.40;;;;;;5072546;28;20052;-69
2023/08/18 15:56:07;;;;;;;8.10;4.90;;;35.80;67.90;;;;;;5072764;28;20282;-70
2023/08/18 15:59:11;;;;;;;10.80;5.20;;;35.40;68.70;;;;;;5072509;28;20048;-70
2023/08/18 16:02:15;;;;;;;7.88;4.53;;;35.30;68.30;;;;;;5072287;28;20048;-71
2023/08/18 16:05:19;;;;;;;6.78;4.70;;;35.30;68.30;;;;;;5072653;28;20040;-71
2023/08/18 16:08:23;;;;;;;11.10;4.90;;;34.90;67.90;;;;;;5072541;28;20035;-70
2023/08/18 16:11:28;;;;;;;9.80;5.05;;;34.50;68.90;;;;;;5072350;28;20051;-70
2023/08/18 16:14:32;;;;;;;12.15;5.40;;;34.30;68.80;;;;;;5072105;28;20043;-69
2023/08/18 16:17:37;;;;;;;9.95;5.50;;;34.10;70.90;;;;;;5072458;28;20321;-68
2023/08/18 16:20:42;;;;;;;10.02;5.85;;;33.90;72.60;;;;;;5072011;28;20391;-69
2023/08/18 16:23:46;;;;;;;6.78;5.05;;;33.60;73.30;;;;;;5072249;28;20051;-68
2023/08/18 16:26:52;;;;;;;13.85;5.95;;;33.40;73.40;;;;;;5072063;28;20044;-67
2023/08/18 16:29:56;;;;;;;13.15;5.45;;;33.40;73.70;;;;;;5072100;28;20040;-69
2023/08/18 16:33:01;;;;;;;10.45;5.70;;;33.30;73.50;;;;;;5071936;28;20050;-69
2023/08/18 16:36:07;;;;;;;11.02;5.22;;;33.30;73.70;;;;;;5071881;28;20048;-68
2023/08/18 16:39:11;;;;;;;12.75;5.68;;;33.20;73.90;;;;;;5071434;28;20044;-68
2023/08/18 16:42:15;;;;;;;9.05;5.45;;;32.80;74.60;;;;;;5071527;28;20047;-68
2023/08/18 16:45:19;;;;;;;9.57;6.05;;;32.70;75.10;;;;;;5071964;28;20047;-69
2023/08/18 16:48:23;;;;;;;10.05;5.40;;;32.70;75.40;;;;;;5071414;28;20036;-71
2023/08/18 16:51:29;;;;;;;8.68;5.40;;;32.80;75.40;;;;;;5070284;28;20090;-71
2023/08/18 16:54:34;;;;;;;11.23;5.32;;;33.20;75.30;;;;;;5071634;28;20044;-71
2023/08/18 16:57:38;;;;;;;12.23;5.38;;;33.60;75.20;;;;;;5071942;28;20063;-71
2023/08/18 17:00:42;;;;;;;8.95;5.20;;;33.60;75.80;;;;;;5071574;28;20510;-70
2023/08/18 17:03:48;;;;;;;10.93;5.30;;;33.40;76.00;;;;;;5059082;28;20119;-70
2023/08/18 17:06:53;;;;;;;11.00;5.82;;;33.30;76.40;;;;;;5071459;28;20388;-70
2023/08/18 17:09:57;;;;;;;14.55;5.93;;;32.70;78.00;;;;;;5071133;28;20031;-71
2023/08/18 17:13:05;;;;;;;6.72;5.63;;;32.70;78.20;;;;;;5072526;28;20059;-70